sensor_id;sensor_type;location;lat;lon;timestamp;temperature;humidity
40654;DHT22;26344;45.532;9.232;2023-10-09T00:01:25;24.60;99.90
40654;DHT22;26344;45.532;9.232;2023-10-09T00:03:51;24.50;99.90
40654;DHT22;26344;45.532;9.232;2023-10-09T00:06:21;24.50;99.90
40654;DHT22;26344;45.532;9.232;2023-10-09T00:08:56;24.50;99.90
40654;DHT22;26344;45.532;9.232;2023-10-09T00:11:23;24.50;99.90
40654;DHT22;26344;45.532;9.232;2023-10-09T00:13:55;24.50;99.90
40654;DHT22;26344;45.532;9.232;2023-10-09T00:16:24;24.50;99.90
40654;DHT22;26344;45.532;9.232;2023-10-09T00:19:05;24.30;99.90
40654;DHT22;26344;45.532;9.232;2023-10-09T00:21:43;24.50;99.90
40654;DHT22;26344;45.532;9.232;2023-10-09T00:24:10;24.40;99.90
40654;DHT22;26344;45.532;9.232;2023-10-09T00:26:47;24.40;99.90
40654;DHT22;26344;45.532;9.232;2023-10-09T00:29:13;24.30;99.90
40654;DHT22;26344;45.532;9.232;2023-10-09T00:31:41;24.40;99.90
40654;DHT22;26344;45.532;9.232;2023-10-09T00:34:18;24.40;99.90
40654;DHT22;26344;45.532;9.232;2023-10-09T00:36:47;24.30;99.90
40654;DHT22;26344;45.532;9.232;2023-10-09T00:39:17;24.30;99.90
40654;DHT22;26344;45.532;9.232;2023-10-09T00:41:58;24.20;99.90
40654;DHT22;26344;45.532;9.232;2023-10-09T00:44:26;24.30;99.90
40654;DHT22;26344;45.532;9.232;2023-10-09T00:47:04;24.20;99.90
40654;DHT22;26344;45.532;9.232;2023-10-09T00:49:36;24.20;99.90
40654;DHT22;26344;45.532;9.232;2023-10-09T00:52:04;24.10;99.90
40654;DHT22;26344;45.532;9.232;2023-10-09T00:54:30;24.20;99.90
40654;DHT22;26344;45.532;9.232;2023-10-09T00:57:06;24.00;99.90
40654;DHT22;26344;45.532;9.232;2023-10-09T00:59:32;24.10;99.90
40654;DHT22;26344;45.532;9.232;2023-10-09T01:01:59;24.00;99.90
40654;DHT22;26344;45.532;9.232;2023-10-09T01:04:30;24.00;99.90
40654;DHT22;26344;45.532;9.232;2023-10-09T01:07:02;24.00;99.90
40654;DHT22;26344;45.532;9.232;2023-10-09T01:09:40;24.00;99.90
40654;DHT22;26344;45.532;9.232;2023-10-09T01:12:09;23.80;99.90
40654;DHT22;26344;45.532;9.232;2023-10-09T01:14:42;23.80;99.90
40654;DHT22;26344;45.532;9.232;2023-10-09T01:17:08;23.80;99.90
40654;DHT22;26344;45.532;9.232;2023-10-09T01:19:34;23.80;99.90
40654;DHT22;26344;45.532;9.232;2023-10-09T01:21:59;23.80;99.90
40654;DHT22;26344;45.532;9.232;2023-10-09T01:24:41;23.80;99.90
40654;DHT22;26344;45.532;9.232;2023-10-09T01:27:07;23.70;99.90
40654;DHT22;26344;45.532;9.232;2023-10-09T01:29:42;23.50;99.90
40654;DHT22;26344;45.532;9.232;2023-10-09T01:32:07;23.70;99.90
40654;DHT22;26344;45.532;9.232;2023-10-09T01:34:41;23.50;99.90
40654;DHT22;26344;45.532;9.232;2023-10-09T01:37:08;23.60;99.90
40654;DHT22;26344;45.532;9.232;2023-10-09T01:39:48;23.60;99.90
40654;DHT22;26344;45.532;9.232;2023-10-09T01:42:16;23.60;99.90
40654;DHT22;26344;45.532;9.232;2023-10-09T01:45:00;23.60;99.90
40654;DHT22;26344;45.532;9.232;2023-10-09T01:47:48;23.50;99.90
40654;DHT22;26344;45.532;9.232;2023-10-09T01:50:18;23.40;99.90
40654;DHT22;26344;45.532;9.232;2023-10-09T01:52:46;25.70;99.90
40654;DHT22;26344;45.532;9.232;2023-10-09T01:55:11;23.50;99.90
40654;DHT22;26344;45.532;9.232;2023-10-09T01:58:00;23.50;99.90
40654;DHT22;26344;45.532;9.232;2023-10-09T02:00:31;23.50;99.90
40654;DHT22;26344;45.532;9.232;2023-10-09T02:03:00;23.70;99.90
40654;DHT22;26344;45.532;9.232;2023-10-09T02:05:30;23.30;99.90
40654;DHT22;26344;45.532;9.232;2023-10-09T02:07:58;23.40;99.90
40654;DHT22;26344;45.532;9.232;2023-10-09T02:10:24;23.50;99.90
40654;DHT22;26344;45.532;9.232;2023-10-09T02:12:50;23.40;99.90
40654;DHT22;26344;45.532;9.232;2023-10-09T02:18:15;23.30;99.90
40654;DHT22;26344;45.532;9.232;2023-10-09T02:20:44;23.20;99.90
40654;DHT22;26344;45.532;9.232;2023-10-09T02:23:33;23.80;99.90
40654;DHT22;26344;45.532;9.232;2023-10-09T02:26:06;23.80;99.90
40654;DHT22;26344;45.532;9.232;2023-10-09T02:28:33;23.30;99.90
40654;DHT22;26344;45.532;9.232;2023-10-09T02:31:00;23.20;99.90
40654;DHT22;26344;45.532;9.232;2023-10-09T02:33:37;23.20;99.90
40654;DHT22;26344;45.532;9.232;2023-10-09T02:36:04;23.20;99.90
40654;DHT22;26344;45.532;9.232;2023-10-09T02:38:34;23.20;99.90
40654;DHT22;26344;45.532;9.232;2023-10-09T02:41:02;23.20;99.90
40654;DHT22;26344;45.532;9.232;2023-10-09T02:43:32;23.10;99.90
40654;DHT22;26344;45.532;9.232;2023-10-09T02:46:13;23.20;99.90
40654;DHT22;26344;45.532;9.232;2023-10-09T02:48:43;23.20;99.90
40654;DHT22;26344;45.532;9.232;2023-10-09T02:51:11;23.60;99.90
40654;DHT22;26344;45.532;9.232;2023-10-09T02:53:43;23.00;99.90
40654;DHT22;26344;45.532;9.232;2023-10-09T02:56:08;23.20;99.90
40654;DHT22;26344;45.532;9.232;2023-10-09T02:58:44;23.00;99.90
40654;DHT22;26344;45.532;9.232;2023-10-09T03:01:13;23.00;99.90
40654;DHT22;26344;45.532;9.232;2023-10-09T03:03:41;22.90;99.90
40654;DHT22;26344;45.532;9.232;2023-10-09T03:06:15;23.00;99.90
40654;DHT22;26344;45.532;9.232;2023-10-09T03:08:50;22.90;99.90
40654;DHT22;26344;45.532;9.232;2023-10-09T03:11:15;22.90;99.90
40654;DHT22;26344;45.532;9.232;2023-10-09T03:13:43;23.00;99.90
40654;DHT22;26344;45.532;9.232;2023-10-09T03:16:10;23.00;99.90
40654;DHT22;26344;45.532;9.232;2023-10-09T03:18:53;22.90;99.90
40654;DHT22;26344;45.532;9.232;2023-10-09T03:21:19;23.00;99.90
40654;DHT22;26344;45.532;9.232;2023-10-09T03:23:45;22.90;99.90
40654;DHT22;26344;45.532;9.232;2023-10-09T03:28:40;23.00;99.90
40654;DHT22;26344;45.532;9.232;2023-10-09T03:31:08;22.90;99.90
40654;DHT22;26344;45.532;9.232;2023-10-09T03:33:35;23.10;99.90
40654;DHT22;26344;45.532;9.232;2023-10-09T03:36:01;23.40;99.90
40654;DHT22;26344;45.532;9.232;2023-10-09T03:38:26;20.20;99.90
40654;DHT22;26344;45.532;9.232;2023-10-09T03:41:01;22.90;99.90
40654;DHT22;26344;45.532;9.232;2023-10-09T03:43:27;22.90;99.90
40654;DHT22;26344;45.532;9.232;2023-10-09T03:48:24;22.90;99.90
40654;DHT22;26344;45.532;9.232;2023-10-09T03:50:58;23.00;99.90
40654;DHT22;26344;45.532;9.232;2023-10-09T03:53:46;23.00;99.90
40654;DHT22;26344;45.532;9.232;2023-10-09T03:56:12;22.90;99.90
40654;DHT22;26344;45.532;9.232;2023-10-09T03:58:40;22.90;99.90
40654;DHT22;26344;45.532;9.232;2023-10-09T04:01:09;22.70;99.90
40654;DHT22;26344;45.532;9.232;2023-10-09T04:03:40;22.80;99.90
40654;DHT22;26344;45.532;9.232;2023-10-09T04:06:05;22.80;99.90
40654;DHT22;26344;45.532;9.232;2023-10-09T04:08:33;22.80;99.90
40654;DHT22;26344;45.532;9.232;2023-10-09T04:11:00;22.80;99.90
40654;DHT22;26344;45.532;9.232;2023-10-09T04:13:31;22.80;99.90
40654;DHT22;26344;45.532;9.232;2023-10-09T04:16:03;22.80;99.90
40654;DHT22;26344;45.532;9.232;2023-10-09T04:18:47;22.70;99.90
40654;DHT22;26344;45.532;9.232;2023-10-09T04:21:12;22.60;99.90
40654;DHT22;26344;45.532;9.232;2023-10-09T04:23:45;22.60;99.90
40654;DHT22;26344;45.532;9.232;2023-10-09T04:26:34;22.60;99.90
40654;DHT22;26344;45.532;9.232;2023-10-09T04:29:03;22.50;99.90
40654;DHT22;26344;45.532;9.232;2023-10-09T04:31:29;22.50;99.90
40654;DHT22;26344;45.532;9.232;2023-10-09T04:34:00;22.60;99.90
40654;DHT22;26344;45.532;9.232;2023-10-09T04:36:44;22.20;99.90
40654;DHT22;26344;45.532;9.232;2023-10-09T04:39:14;22.30;99.90
40654;DHT22;26344;45.532;9.232;2023-10-09T04:41:55;22.30;99.90
40654;DHT22;26344;45.532;9.232;2023-10-09T04:44:43;22.40;99.90
40654;DHT22;26344;45.532;9.232;2023-10-09T04:47:31;22.30;99.90
40654;DHT22;26344;45.532;9.232;2023-10-09T04:50:04;22.30;99.90
40654;DHT22;26344;45.532;9.232;2023-10-09T04:52:33;22.30;99.90
40654;DHT22;26344;45.532;9.232;2023-10-09T04:54:59;22.30;99.90
40654;DHT22;26344;45.532;9.232;2023-10-09T04:57:43;22.30;99.90
40654;DHT22;26344;45.532;9.232;2023-10-09T05:00:09;22.30;99.90
40654;DHT22;26344;45.532;9.232;2023-10-09T05:02:51;22.30;99.90
40654;DHT22;26344;45.532;9.232;2023-10-09T05:05:37;22.30;99.90
40654;DHT22;26344;45.532;9.232;2023-10-09T05:08:12;22.20;99.90
40654;DHT22;26344;45.532;9.232;2023-10-09T05:13:24;22.30;99.90
40654;DHT22;26344;45.532;9.232;2023-10-09T05:16:18;22.40;99.90
40654;DHT22;26344;45.532;9.232;2023-10-09T05:18:48;22.30;99.90
40654;DHT22;26344;45.532;9.232;2023-10-09T05:21:37;22.30;99.90
40654;DHT22;26344;45.532;9.232;2023-10-09T05:24:12;22.40;99.90
40654;DHT22;26344;45.532;9.232;2023-10-09T05:26:38;22.40;99.90
40654;DHT22;26344;45.532;9.232;2023-10-09T05:29:13;22.30;99.90
40654;DHT22;26344;45.532;9.232;2023-10-09T05:31:53;22.30;99.90
40654;DHT22;26344;45.532;9.232;2023-10-09T05:34:41;22.30;99.90
40654;DHT22;26344;45.532;9.232;2023-10-09T05:37:28;22.30;99.90
40654;DHT22;26344;45.532;9.232;2023-10-09T05:40:08;22.30;99.90
40654;DHT22;26344;45.532;9.232;2023-10-09T05:42:43;22.30;99.90
40654;DHT22;26344;45.532;9.232;2023-10-09T05:45:10;22.30;99.90
40654;DHT22;26344;45.532;9.232;2023-10-09T05:47:42;22.30;99.90
40654;DHT22;26344;45.532;9.232;2023-10-09T05:50:26;22.20;99.90
40654;DHT22;26344;45.532;9.232;2023-10-09T05:52:52;22.30;99.90
40654;DHT22;26344;45.532;9.232;2023-10-09T05:55:20;22.30;99.90
40654;DHT22;26344;45.532;9.232;2023-10-09T05:58:04;22.20;99.90
40654;DHT22;26344;45.532;9.232;2023-10-09T06:01:05;22.30;99.90
40654;DHT22;26344;45.532;9.232;2023-10-09T06:03:49;22.30;99.90
40654;DHT22;26344;45.532;9.232;2023-10-09T06:06:19;22.20;99.90
40654;DHT22;26344;45.532;9.232;2023-10-09T06:09:10;22.80;99.90
40654;DHT22;26344;45.532;9.232;2023-10-09T06:11:38;22.20;99.90
40654;DHT22;26344;45.532;9.232;2023-10-09T06:14:05;22.10;99.90
40654;DHT22;26344;45.532;9.232;2023-10-09T06:16:36;22.20;99.90
40654;DHT22;26344;45.532;9.232;2023-10-09T06:19:21;22.20;99.90
40654;DHT22;26344;45.532;9.232;2023-10-09T06:21:53;22.20;99.90
40654;DHT22;26344;45.532;9.232;2023-10-09T06:24:38;22.10;99.90
40654;DHT22;26344;45.532;9.232;2023-10-09T06:27:09;22.10;99.90
40654;DHT22;26344;45.532;9.232;2023-10-09T06:29:35;22.10;99.90
40654;DHT22;26344;45.532;9.232;2023-10-09T06:32:04;22.20;99.90
40654;DHT22;26344;45.532;9.232;2023-10-09T06:34:45;22.20;99.90
40654;DHT22;26344;45.532;9.232;2023-10-09T06:37:11;22.10;99.90
40654;DHT22;26344;45.532;9.232;2023-10-09T06:39:52;22.10;99.90
40654;DHT22;26344;45.532;9.232;2023-10-09T06:42:21;22.20;99.90
40654;DHT22;26344;45.532;9.232;2023-10-09T06:45:02;22.10;99.90
40654;DHT22;26344;45.532;9.232;2023-10-09T06:47:49;22.20;99.90
40654;DHT22;26344;45.532;9.232;2023-10-09T06:50:21;22.20;99.90
40654;DHT22;26344;45.532;9.232;2023-10-09T06:52:53;22.30;99.90
40654;DHT22;26344;45.532;9.232;2023-10-09T06:55:23;22.30;99.90
40654;DHT22;26344;45.532;9.232;2023-10-09T06:57:59;22.30;99.90
40654;DHT22;26344;45.532;9.232;2023-10-09T07:00:27;22.10;99.90
40654;DHT22;26344;45.532;9.232;2023-10-09T07:03:11;22.30;99.90
40654;DHT22;26344;45.532;9.232;2023-10-09T07:05:37;22.30;99.90
40654;DHT22;26344;45.532;9.232;2023-10-09T07:08:22;22.40;99.90
40654;DHT22;26344;45.532;9.232;2023-10-09T07:10:58;22.40;99.90
40654;DHT22;26344;45.532;9.232;2023-10-09T07:13:45;22.40;99.90
40654;DHT22;26344;45.532;9.232;2023-10-09T07:16:20;22.40;99.90
40654;DHT22;26344;45.532;9.232;2023-10-09T07:19:06;22.50;99.90
40654;DHT22;26344;45.532;9.232;2023-10-09T07:21:35;22.70;99.90
40654;DHT22;26344;45.532;9.232;2023-10-09T07:24:01;22.70;99.90
40654;DHT22;26344;45.532;9.232;2023-10-09T07:26:42;22.90;99.90
40654;DHT22;26344;45.532;9.232;2023-10-09T07:29:19;22.90;99.90
40654;DHT22;26344;45.532;9.232;2023-10-09T07:31:51;23.00;99.90
40654;DHT22;26344;45.532;9.232;2023-10-09T07:34:23;23.40;99.90
40654;DHT22;26344;45.532;9.232;2023-10-09T07:37:08;23.50;99.90
40654;DHT22;26344;45.532;9.232;2023-10-09T07:39:34;23.80;99.90
40654;DHT22;26344;45.532;9.232;2023-10-09T07:42:03;23.90;99.90
40654;DHT22;26344;45.532;9.232;2023-10-09T07:44:41;24.30;99.90
40654;DHT22;26344;45.532;9.232;2023-10-09T07:47:11;24.30;99.90
40654;DHT22;26344;45.532;9.232;2023-10-09T07:49:45;24.50;99.90
40654;DHT22;26344;45.532;9.232;2023-10-09T07:52:16;24.60;99.90
40654;DHT22;26344;45.532;9.232;2023-10-09T07:54:42;24.90;99.90
40654;DHT22;26344;45.532;9.232;2023-10-09T07:57:19;25.10;99.90
40654;DHT22;26344;45.532;9.232;2023-10-09T07:59:51;25.20;99.90
40654;DHT22;26344;45.532;9.232;2023-10-09T08:02:37;25.40;99.90
40654;DHT22;26344;45.532;9.232;2023-10-09T08:05:04;25.60;99.90
40654;DHT22;26344;45.532;9.232;2023-10-09T08:07:44;25.80;99.90
40654;DHT22;26344;45.532;9.232;2023-10-09T08:10:19;26.00;99.90
40654;DHT22;26344;45.532;9.232;2023-10-09T08:12:46;23.30;99.90
40654;DHT22;26344;45.532;9.232;2023-10-09T08:15:15;26.30;99.90
40654;DHT22;26344;45.532;9.232;2023-10-09T08:17:51;26.40;99.90
40654;DHT22;26344;45.532;9.232;2023-10-09T08:20:22;26.60;99.90
40654;DHT22;26344;45.532;9.232;2023-10-09T08:22:51;26.60;99.90
40654;DHT22;26344;45.532;9.232;2023-10-09T08:25:17;26.80;99.80
40654;DHT22;26344;45.532;9.232;2023-10-09T08:27:56;27.20;99.60
40654;DHT22;26344;45.532;9.232;2023-10-09T08:30:23;27.00;99.10
40654;DHT22;26344;45.532;9.232;2023-10-09T08:32:51;27.10;99.30
40654;DHT22;26344;45.532;9.232;2023-10-09T08:35:49;27.20;99.20
40654;DHT22;26344;45.532;9.232;2023-10-09T08:38:15;27.50;98.80
40654;DHT22;26344;45.532;9.232;2023-10-09T08:40:46;27.60;98.90
40654;DHT22;26344;45.532;9.232;2023-10-09T08:45:38;27.90;98.80
40654;DHT22;26344;45.532;9.232;2023-10-09T08:48:07;28.00;98.60
40654;DHT22;26344;45.532;9.232;2023-10-09T08:50:33;28.20;98.30
40654;DHT22;26344;45.532;9.232;2023-10-09T08:53:00;28.30;98.00
40654;DHT22;26344;45.532;9.232;2023-10-09T08:55:26;28.40;97.80
40654;DHT22;26344;45.532;9.232;2023-10-09T08:57:51;28.50;97.70
40654;DHT22;26344;45.532;9.232;2023-10-09T09:00:18;28.60;97.50
40654;DHT22;26344;45.532;9.232;2023-10-09T09:02:55;28.70;97.30
40654;DHT22;26344;45.532;9.232;2023-10-09T09:05:20;28.90;97.00
40654;DHT22;26344;45.532;9.232;2023-10-09T09:07:46;29.10;96.50
40654;DHT22;26344;45.532;9.232;2023-10-09T09:10:13;29.00;96.40
40654;DHT22;26344;45.532;9.232;2023-10-09T09:12:48;29.10;96.30
40654;DHT22;26344;45.532;9.232;2023-10-09T09:15:19;29.10;96.10
40654;DHT22;26344;45.532;9.232;2023-10-09T09:17:45;29.30;95.90
40654;DHT22;26344;45.532;9.232;2023-10-09T09:20:24;29.50;95.70
40654;DHT22;26344;45.532;9.232;2023-10-09T09:22:55;29.60;95.30
40654;DHT22;26344;45.532;9.232;2023-10-09T09:25:21;29.80;95.20
40654;DHT22;26344;45.532;9.232;2023-10-09T09:27:49;29.80;95.10
40654;DHT22;26344;45.532;9.232;2023-10-09T09:30:28;29.90;95.00
40654;DHT22;26344;45.532;9.232;2023-10-09T09:36:04;30.20;94.10
40654;DHT22;26344;45.532;9.232;2023-10-09T09:38:34;30.30;94.10
40654;DHT22;26344;45.532;9.232;2023-10-09T09:41:18;30.00;93.50
40654;DHT22;26344;45.532;9.232;2023-10-09T09:43:53;30.30;93.60
40654;DHT22;26344;45.532;9.232;2023-10-09T09:46:24;30.40;93.50
40654;DHT22;26344;45.532;9.232;2023-10-09T09:49:00;30.50;93.10
40654;DHT22;26344;45.532;9.232;2023-10-09T09:51:29;30.50;92.80
40654;DHT22;26344;45.532;9.232;2023-10-09T09:53:55;30.60;92.80
40654;DHT22;26344;45.532;9.232;2023-10-09T09:56:20;30.80;92.70
40654;DHT22;26344;45.532;9.232;2023-10-09T09:58:50;30.90;92.60
40654;DHT22;26344;45.532;9.232;2023-10-09T10:01:19;30.90;92.70
40654;DHT22;26344;45.532;9.232;2023-10-09T10:03:56;31.10;92.60
40654;DHT22;26344;45.532;9.232;2023-10-09T10:06:23;31.20;92.60
40654;DHT22;26344;45.532;9.232;2023-10-09T10:08:52;31.30;92.50
40654;DHT22;26344;45.532;9.232;2023-10-09T10:14:06;31.40;92.20
40654;DHT22;26344;45.532;9.232;2023-10-09T10:16:59;31.40;92.40
40654;DHT22;26344;45.532;9.232;2023-10-09T10:19:21;31.60;92.30
40654;DHT22;26344;45.532;9.232;2023-10-09T10:21:47;31.60;92.30
40654;DHT22;26344;45.532;9.232;2023-10-09T10:27:17;31.50;92.10
40654;DHT22;26344;45.532;9.232;2023-10-09T10:33:00;31.30;92.40
40654;DHT22;26344;45.532;9.232;2023-10-09T10:35:35;31.50;92.40
40654;DHT22;26344;45.532;9.232;2023-10-09T10:38:28;31.50;92.40
40654;DHT22;26344;45.532;9.232;2023-10-09T10:43:37;31.50;92.00
40654;DHT22;26344;45.532;9.232;2023-10-09T10:46:18;31.80;91.70
40654;DHT22;26344;45.532;9.232;2023-10-09T10:49:04;32.00;91.50
40654;DHT22;26344;45.532;9.232;2023-10-09T10:51:39;32.30;91.40
40654;DHT22;26344;45.532;9.232;2023-10-09T10:54:05;32.50;90.80
40654;DHT22;26344;45.532;9.232;2023-10-09T10:56:49;32.70;90.30
40654;DHT22;26344;45.532;9.232;2023-10-09T10:59:15;32.80;88.80
40654;DHT22;26344;45.532;9.232;2023-10-09T11:01:48;32.90;88.90
40654;DHT22;26344;45.532;9.232;2023-10-09T11:04:23;33.00;88.60
40654;DHT22;26344;45.532;9.232;2023-10-09T11:06:55;33.10;88.20
40654;DHT22;26344;45.532;9.232;2023-10-09T11:09:46;33.20;87.60
40654;DHT22;26344;45.532;9.232;2023-10-09T11:12:45;33.30;87.80
40654;DHT22;26344;45.532;9.232;2023-10-09T11:15:35;33.40;86.60
40654;DHT22;26344;45.532;9.232;2023-10-09T11:18:10;33.30;86.50
40654;DHT22;26344;45.532;9.232;2023-10-09T11:20:45;33.30;85.80
40654;DHT22;26344;45.532;9.232;2023-10-09T11:23:23;33.30;85.70
40654;DHT22;26344;45.532;9.232;2023-10-09T11:26:02;33.40;85.00
40654;DHT22;26344;45.532;9.232;2023-10-09T11:28:46;33.60;84.50
40654;DHT22;26344;45.532;9.232;2023-10-09T11:31:22;33.60;84.20
40654;DHT22;26344;45.532;9.232;2023-10-09T11:33:48;33.60;83.10
40654;DHT22;26344;45.532;9.232;2023-10-09T11:36:20;33.60;82.70
40654;DHT22;26344;45.532;9.232;2023-10-09T11:38:58;33.80;82.60
40654;DHT22;26344;45.532;9.232;2023-10-09T11:41:39;33.80;81.40
40654;DHT22;26344;45.532;9.232;2023-10-09T11:44:06;33.80;81.10
40654;DHT22;26344;45.532;9.232;2023-10-09T11:46:32;33.90;80.90
40654;DHT22;26344;45.532;9.232;2023-10-09T11:49:15;34.00;80.70
40654;DHT22;26344;45.532;9.232;2023-10-09T11:51:41;34.10;79.30
40654;DHT22;26344;45.532;9.232;2023-10-09T11:54:30;34.10;79.50
40654;DHT22;26344;45.532;9.232;2023-10-09T11:56:56;34.20;79.60
40654;DHT22;26344;45.532;9.232;2023-10-09T11:59:22;34.30;79.70
40654;DHT22;26344;45.532;9.232;2023-10-09T12:01:48;34.30;79.70
40654;DHT22;26344;45.532;9.232;2023-10-09T12:04:18;34.40;79.20
40654;DHT22;26344;45.532;9.232;2023-10-09T12:06:44;34.50;79.40
40654;DHT22;26344;45.532;9.232;2023-10-09T12:09:09;34.30;78.80
40654;DHT22;26344;45.532;9.232;2023-10-09T12:11:49;33.90;78.30
40654;DHT22;26344;45.532;9.232;2023-10-09T12:14:18;33.60;78.40
40654;DHT22;26344;45.532;9.232;2023-10-09T12:16:49;33.40;79.50
40654;DHT22;26344;45.532;9.232;2023-10-09T12:19:15;33.60;79.40
40654;DHT22;26344;45.532;9.232;2023-10-09T12:21:42;33.80;79.20
40654;DHT22;26344;45.532;9.232;2023-10-09T12:24:08;34.00;79.20
40654;DHT22;26344;45.532;9.232;2023-10-09T12:26:37;34.20;79.00
40654;DHT22;26344;45.532;9.232;2023-10-09T12:29:04;34.40;78.40
40654;DHT22;26344;45.532;9.232;2023-10-09T12:31:36;34.50;78.10
40654;DHT22;26344;45.532;9.232;2023-10-09T12:34:02;34.70;77.90
40654;DHT22;26344;45.532;9.232;2023-10-09T12:36:28;34.80;77.80
40654;DHT22;26344;45.532;9.232;2023-10-09T12:38:53;34.90;77.70
40654;DHT22;26344;45.532;9.232;2023-10-09T12:41:24;34.90;76.40
40654;DHT22;26344;45.532;9.232;2023-10-09T12:43:53;34.70;76.60
40654;DHT22;26344;45.532;9.232;2023-10-09T12:46:19;34.80;76.40
40654;DHT22;26344;45.532;9.232;2023-10-09T12:48:48;34.80;75.60
40654;DHT22;26344;45.532;9.232;2023-10-09T12:51:14;34.80;75.80
40654;DHT22;26344;45.532;9.232;2023-10-09T12:53:44;34.80;75.70
40654;DHT22;26344;45.532;9.232;2023-10-09T12:56:09;34.80;75.50
40654;DHT22;26344;45.532;9.232;2023-10-09T12:58:37;34.90;75.40
40654;DHT22;26344;45.532;9.232;2023-10-09T13:01:03;34.80;74.80
40654;DHT22;26344;45.532;9.232;2023-10-09T13:03:35;34.60;75.00
40654;DHT22;26344;45.532;9.232;2023-10-09T13:06:03;34.70;75.20
40654;DHT22;26344;45.532;9.232;2023-10-09T13:08:32;34.80;74.80
40654;DHT22;26344;45.532;9.232;2023-10-09T13:11:02;34.70;74.60
40654;DHT22;26344;45.532;9.232;2023-10-09T13:13:35;34.70;74.50
40654;DHT22;26344;45.532;9.232;2023-10-09T13:16:16;34.80;74.30
40654;DHT22;26344;45.532;9.232;2023-10-09T13:18:55;34.90;73.30
40654;DHT22;26344;45.532;9.232;2023-10-09T13:21:22;34.90;73.60
40654;DHT22;26344;45.532;9.232;2023-10-09T13:23:48;35.00;73.40
40654;DHT22;26344;45.532;9.232;2023-10-09T13:26:17;35.00;73.50
40654;DHT22;26344;45.532;9.232;2023-10-09T13:28:46;35.00;73.70
40654;DHT22;26344;45.532;9.232;2023-10-09T13:31:12;35.10;73.80
40654;DHT22;26344;45.532;9.232;2023-10-09T13:33:40;35.00;73.10
40654;DHT22;26344;45.532;9.232;2023-10-09T13:36:05;34.90;73.20
40654;DHT22;26344;45.532;9.232;2023-10-09T13:38:41;34.90;73.60
40654;DHT22;26344;45.532;9.232;2023-10-09T13:41:08;34.90;73.70
40654;DHT22;26344;45.532;9.232;2023-10-09T13:43:40;34.90;73.80
40654;DHT22;26344;45.532;9.232;2023-10-09T13:46:06;35.00;73.50
40654;DHT22;26344;45.532;9.232;2023-10-09T13:48:33;34.90;73.20
40654;DHT22;26344;45.532;9.232;2023-10-09T13:51:04;34.90;73.40
40654;DHT22;26344;45.532;9.232;2023-10-09T13:53:32;34.90;73.40
40654;DHT22;26344;45.532;9.232;2023-10-09T13:56:01;34.90;73.50
40654;DHT22;26344;45.532;9.232;2023-10-09T13:58:27;34.90;73.70
40654;DHT22;26344;45.532;9.232;2023-10-09T14:00:52;35.20;74.30
40654;DHT22;26344;45.532;9.232;2023-10-09T14:03:18;34.40;74.10
40654;DHT22;26344;45.532;9.232;2023-10-09T14:05:48;34.20;74.50
40654;DHT22;26344;45.532;9.232;2023-10-09T14:08:22;34.10;75.20
40654;DHT22;26344;45.532;9.232;2023-10-09T14:10:51;34.10;75.30
40654;DHT22;26344;45.532;9.232;2023-10-09T14:13:17;34.10;75.20
40654;DHT22;26344;45.532;9.232;2023-10-09T14:15:51;34.10;74.90
40654;DHT22;26344;45.532;9.232;2023-10-09T14:18:17;34.20;75.00
40654;DHT22;26344;45.532;9.232;2023-10-09T14:20:42;34.10;74.70
40654;DHT22;26344;45.532;9.232;2023-10-09T14:23:08;35.30;75.50
40654;DHT22;26344;45.532;9.232;2023-10-09T14:25:38;34.10;74.70
40654;DHT22;26344;45.532;9.232;2023-10-09T14:28:07;34.20;74.90
40654;DHT22;26344;45.532;9.232;2023-10-09T14:30:34;34.20;74.60
40654;DHT22;26344;45.532;9.232;2023-10-09T14:33:07;34.00;74.40
40654;DHT22;26344;45.532;9.232;2023-10-09T14:35:40;33.90;74.60
40654;DHT22;26344;45.532;9.232;2023-10-09T14:38:06;33.80;74.60
40654;DHT22;26344;45.532;9.232;2023-10-09T14:40:40;33.80;74.80
40654;DHT22;26344;45.532;9.232;2023-10-09T14:43:09;33.70;74.80
40654;DHT22;26344;45.532;9.232;2023-10-09T14:45:47;33.70;75.00
40654;DHT22;26344;45.532;9.232;2023-10-09T14:48:16;33.60;75.20
40654;DHT22;26344;45.532;9.232;2023-10-09T14:50:51;33.50;75.20
40654;DHT22;26344;45.532;9.232;2023-10-09T14:53:23;33.30;75.40
40654;DHT22;26344;45.532;9.232;2023-10-09T14:55:55;33.20;75.60
40654;DHT22;26344;45.532;9.232;2023-10-09T14:58:21;33.10;75.80
40654;DHT22;26344;45.532;9.232;2023-10-09T15:00:50;33.00;76.10
40654;DHT22;26344;45.532;9.232;2023-10-09T15:03:15;32.90;76.30
40654;DHT22;26344;45.532;9.232;2023-10-09T15:05:48;32.70;76.70
40654;DHT22;26344;45.532;9.232;2023-10-09T15:08:13;32.60;77.00
40654;DHT22;26344;45.532;9.232;2023-10-09T15:10:49;32.50;77.30
40654;DHT22;26344;45.532;9.232;2023-10-09T15:13:14;32.40;77.50
40654;DHT22;26344;45.532;9.232;2023-10-09T15:15:42;32.30;77.80
40654;DHT22;26344;45.532;9.232;2023-10-09T15:18:07;32.20;78.40
40654;DHT22;26344;45.532;9.232;2023-10-09T15:20:34;32.10;78.40
40654;DHT22;26344;45.532;9.232;2023-10-09T15:23:00;32.00;78.70
40654;DHT22;26344;45.532;9.232;2023-10-09T15:25:26;31.90;78.30
40654;DHT22;26344;45.532;9.232;2023-10-09T15:27:52;31.80;79.10
40654;DHT22;26344;45.532;9.232;2023-10-09T15:30:17;31.70;79.20
40654;DHT22;26344;45.532;9.232;2023-10-09T15:32:43;31.60;79.50
40654;DHT22;26344;45.532;9.232;2023-10-09T15:35:09;30.30;78.30
40654;DHT22;26344;45.532;9.232;2023-10-09T15:37:41;31.50;80.00
40654;DHT22;26344;45.532;9.232;2023-10-09T15:40:06;31.40;80.20
40654;DHT22;26344;45.532;9.232;2023-10-09T15:42:39;31.40;80.60
40654;DHT22;26344;45.532;9.232;2023-10-09T15:45:05;31.30;80.80
40654;DHT22;26344;45.532;9.232;2023-10-09T15:47:31;31.20;81.00
40654;DHT22;26344;45.532;9.232;2023-10-09T15:50:04;31.20;81.40
40654;DHT22;26344;45.532;9.232;2023-10-09T15:52:34;31.20;81.60
40654;DHT22;26344;45.532;9.232;2023-10-09T15:54:59;31.10;81.90
40654;DHT22;26344;45.532;9.232;2023-10-09T15:57:26;31.00;82.10
40654;DHT22;26344;45.532;9.232;2023-10-09T15:59:51;31.00;82.40
40654;DHT22;26344;45.532;9.232;2023-10-09T16:02:17;30.90;82.50
40654;DHT22;26344;45.532;9.232;2023-10-09T16:04:43;30.90;82.70
40654;DHT22;26344;45.532;9.232;2023-10-09T16:07:10;30.90;83.00
40654;DHT22;26344;45.532;9.232;2023-10-09T16:09:36;30.90;83.20
40654;DHT22;26344;45.532;9.232;2023-10-09T16:12:07;30.80;83.30
40654;DHT22;26344;45.532;9.232;2023-10-09T16:14:33;30.80;83.40
40654;DHT22;26344;45.532;9.232;2023-10-09T16:17:02;30.80;83.40
40654;DHT22;26344;45.532;9.232;2023-10-09T16:19:28;30.70;83.50
40654;DHT22;26344;45.532;9.232;2023-10-09T16:21:58;30.60;83.60
40654;DHT22;26344;45.532;9.232;2023-10-09T16:24:30;30.60;83.70
40654;DHT22;26344;45.532;9.232;2023-10-09T16:26:58;30.50;83.90